CheckWX is a tool to help pilots better visualize weather data.  It is not intended as a substitute for an official pre-flight weather briefing.

03:27:13 UTC

KMMK METAR
Meriden Markham Municipal Airport
Meriden, Connecticut, USA
Current

34 mins ago

KMMK 260253Z AUTO 18008KT 10SM BKN048 OVC060 15/08 A3008 RMK AO2 SLP184 T01500078 55008
Observed
May-26 @ 02:53 UTC
Wind
  • 180° at 8 KTS
Visibility
10 SM
Flight Rules
VFR
Cloud Levels
  • Broken at 4,800' AGL
  • Overcast at 6,000' AGL
Temperature
15°C / 59°F
Dewpoint
C / 46°F
Humidity
63%
Altimeter
30.08" Hg
Pressure
1018.62 hPa
Previous

2 hours ago

KMMK 260153Z AUTO 20010KT 10SM OVC050 16/06 A3008 RMK AO2 SLP183 T01560061
Observed
May-26 @ 01:53 UTC
Wind
  • 200° at 10 KTS
Visibility
10 SM
Flight Rules
VFR
Cloud Levels
  • Overcast at 5,000' AGL
Temperature
16°C / 61°F
Dewpoint
C / 43°F
Humidity
52%
Altimeter
30.08" Hg
Pressure
1018.62 hPa
Previous

3 hours ago

KMMK 260053Z AUTO 18009G15KT 10SM BKN060 BKN110 16/06 A3009 RMK AO2 SLP188 T01560061
Observed
May-26 @ 00:53 UTC
Wind
  • 180° at 9 KTS
  • Gusting to 15 KTS
Visibility
10 SM
Flight Rules
VFR
Cloud Levels
  • Broken at 6,000' AGL
  • Broken at 11,000' AGL
Temperature
16°C / 61°F
Dewpoint
C / 43°F
Humidity
52%
Altimeter
30.09" Hg
Pressure
1018.92 hPa